< Typhoon 198004 1980 Season Typhoon 198006 >
Typhoon 198005 (GEORGIA)
General InformationTrack Information on Google MapsDetailed Wind Information || Disaster Info.ResourceGoogle EarthGE AnimationAtom FeedGeoJSON
Detalied Best Track (Time Zone = UTC)
Year Month Day Hour Lat. Long. Pressure (hPa) Wind (kt) Class Image Chart
1980 5 19 12 15.0 114.0 1002 0 2 -- Chart
1980 5 19 18 15.0 114.0 1002 0 2 -- Chart
1980 5 20 00 15.0 114.0 1002 0 2 -- Chart
1980 5 20 06 15.0 114.0 1002 0 2 -- Chart
1980 5 20 12 14.5 114.5 1002 0 2 -- Chart
1980 5 20 18 14.3 115.0 1000 0 2 -- Chart
1980 5 21 00 14.7 115.0 1000 0 2 -- Chart
1980 5 21 06 15.0 115.0 1000 0 2 -- Chart
1980 5 21 12 15.5 114.8 1000 0 2 -- Chart
1980 5 21 18 16.0 114.6 1000 0 2 -- Chart
1980 5 22 00 16.5 114.5 996 0 2 -- Chart
1980 5 22 06 17.2 114.5 992 0 2 -- Chart
1980 5 22 12 18.0 114.5 985 45 3 -- Chart
1980 5 22 18 18.8 114.5 985 45 3 -- Chart
1980 5 23 00 19.6 114.5 980 50 4 -- Chart
1980 5 23 06 20.6 114.9 980 50 4 -- Chart
1980 5 23 12 21.5 115.3 980 55 4 -- Chart
1980 5 23 18 22.4 115.9 980 55 4 -- Chart
1980 5 24 00 23.4 116.4 990 45 3 -- Chart
1980 5 24 06 24.4 117.3 996 0 2 -- Chart
1980 5 24 12 25.6 118.4 1000 0 2 -- Chart
1980 5 24 18 27.0 119.5 1000 0 2 -- Chart
1980 5 25 00 29.0 121.0 1002 0 2 -- Chart
Japan Meteorological Agency Best Track Data | Correction Date : 1992-10-21
< Typhoon 198004 1980 Season Typhoon 198006 >

Help